createdAt,value
2018-04-06T00:01:10.750Z,14.40
2018-04-06T00:03:38.266Z,12.87
2018-04-06T00:06:05.793Z,14.27
2018-04-06T00:08:33.323Z,18.40
2018-04-06T00:11:00.868Z,15.57
2018-04-06T00:13:28.413Z,15.53
2018-04-06T00:15:55.975Z,16.83
2018-04-06T00:18:23.498Z,21.53
2018-04-06T00:20:51.024Z,14.97
2018-04-06T00:23:18.553Z,13.13
2018-04-06T00:25:46.139Z,18.47
2018-04-06T00:28:13.705Z,19.53
2018-04-06T00:30:41.232Z,13.03
2018-04-06T00:33:08.778Z,14.73
2018-04-06T00:35:36.306Z,17.33
2018-04-06T00:38:03.829Z,13.17
2018-04-06T00:40:31.359Z,16.37
2018-04-06T00:42:58.881Z,16.97
2018-04-06T00:45:26.401Z,15.70
2018-04-06T00:47:53.980Z,15.70
2018-04-06T00:50:21.510Z,17.70
2018-04-06T00:52:49.102Z,12.07
2018-04-06T00:55:16.608Z,18.43
2018-04-06T00:57:44.221Z,16.67
2018-04-06T01:00:11.730Z,16.17
2018-04-06T01:02:39.262Z,19.27
2018-04-06T01:05:06.770Z,12.07
2018-04-06T01:07:34.320Z,14.73
2018-04-06T01:10:01.918Z,13.03
2018-04-06T01:12:29.442Z,13.23
2018-04-06T01:14:56.991Z,17.37
2018-04-06T01:17:24.505Z,14.57
2018-04-06T01:19:52.041Z,14.33
2018-04-06T01:22:19.598Z,13.27
2018-04-06T01:24:47.111Z,12.63
2018-04-06T01:27:14.636Z,19.00
2018-04-06T01:29:42.158Z,14.63
2018-04-06T01:32:09.672Z,16.00
2018-04-06T01:34:37.193Z,16.10
2018-04-06T01:37:04.702Z,17.17
2018-04-06T01:39:32.213Z,16.73
2018-04-06T01:41:59.717Z,18.83
2018-04-06T01:44:27.244Z,18.43
2018-04-06T01:46:54.821Z,19.23
2018-04-06T01:49:22.470Z,16.07
2018-04-06T01:51:49.990Z,13.63
2018-04-06T01:54:17.542Z,22.23
2018-04-06T01:56:45.058Z,12.70
2018-04-06T01:59:12.584Z,17.83
2018-04-06T02:01:40.119Z,17.63
2018-04-06T02:04:07.639Z,23.63
2018-04-06T02:06:35.286Z,17.30
2018-04-06T02:09:02.809Z,22.13
2018-04-06T02:11:30.335Z,19.33
2018-04-06T02:13:57.845Z,18.47
2018-04-06T02:16:25.353Z,19.97
2018-04-06T02:18:52.893Z,20.70
2018-04-06T02:21:20.411Z,15.83
2018-04-06T02:23:47.934Z,15.83
2018-04-06T02:26:15.456Z,20.53
2018-04-06T02:28:43.017Z,22.90
2018-04-06T02:31:10.577Z,16.43
2018-04-06T02:33:38.099Z,18.37
2018-04-06T02:36:05.696Z,17.33
2018-04-06T02:38:33.209Z,18.20
2018-04-06T02:41:00.724Z,17.13
2018-04-06T02:43:28.242Z,15.30
2018-04-06T02:45:55.795Z,19.87
2018-04-06T02:48:23.327Z,21.53
2018-04-06T02:50:50.938Z,20.10
2018-04-06T02:53:18.463Z,22.93
2018-04-06T02:55:46.091Z,20.10
2018-04-06T02:58:13.722Z,15.60
2018-04-06T03:00:41.239Z,15.43
2018-04-06T03:03:08.796Z,15.80
2018-04-06T03:05:36.324Z,16.50
2018-04-06T03:08:03.841Z,22.77
2018-04-06T03:10:31.363Z,25.73
2018-04-06T03:12:58.892Z,20.37
2018-04-06T03:15:26.411Z,19.53
2018-04-06T03:17:53.963Z,18.27
2018-04-06T03:20:21.476Z,14.63
2018-04-06T03:22:49.025Z,25.37
2018-04-06T03:25:16.553Z,18.20
2018-04-06T03:27:44.069Z,17.17
2018-04-06T03:30:11.573Z,20.10
2018-04-06T03:32:39.088Z,18.17
2018-04-06T03:35:06.625Z,23.90
2018-04-06T03:37:34.149Z,22.27
2018-04-06T03:40:01.699Z,18.10
2018-04-06T03:42:29.214Z,18.70
2018-04-06T03:44:56.764Z,22.13
2018-04-06T03:47:24.286Z,11.50
2018-04-06T03:49:51.809Z,19.60
2018-04-06T03:52:19.437Z,21.20
2018-04-06T03:54:47.001Z,16.90
2018-04-06T03:57:14.517Z,26.27
2018-04-06T03:59:42.111Z,18.73
2018-04-06T04:02:09.631Z,19.07
2018-04-06T04:04:37.167Z,17.37
2018-04-06T04:07:04.710Z,15.80
2018-04-06T04:09:32.228Z,19.13
2018-04-06T04:11:59.741Z,21.03
2018-04-06T04:14:27.379Z,19.37
2018-04-06T04:16:54.904Z,19.73
2018-04-06T04:19:22.418Z,16.17
2018-04-06T04:21:50.054Z,18.10
2018-04-06T04:24:17.600Z,16.00
2018-04-06T04:26:45.104Z,15.30
2018-04-06T04:29:12.622Z,20.43
2018-04-06T04:31:40.183Z,22.17
2018-04-06T04:34:07.728Z,17.93
2018-04-06T04:36:35.271Z,13.97
2018-04-06T04:39:02.801Z,15.10
2018-04-06T04:41:30.320Z,22.53
2018-04-06T04:43:57.829Z,18.53
2018-04-06T04:46:25.347Z,15.00
2018-04-06T04:48:52.878Z,15.33
2018-04-06T04:51:20.397Z,20.90
2018-04-06T04:53:47.924Z,16.03
2018-04-06T04:56:15.453Z,24.23
2018-04-06T04:58:43.002Z,16.50
2018-04-06T05:01:10.517Z,21.10
2018-04-06T05:03:38.026Z,15.17
2018-04-06T05:06:05.555Z,24.17
2018-04-06T05:08:33.083Z,19.37
2018-04-06T05:11:00.607Z,17.73
2018-04-06T05:13:28.120Z,23.50
2018-04-06T05:15:55.633Z,19.97
2018-04-06T05:18:23.221Z,16.67
2018-04-06T05:20:50.748Z,17.90
2018-04-06T05:23:18.341Z,14.67
2018-04-06T05:25:45.867Z,21.13
2018-04-06T05:28:13.393Z,23.80
2018-04-06T05:30:40.914Z,16.93
2018-04-06T05:33:08.434Z,19.80
2018-04-06T05:35:35.949Z,18.57
2018-04-06T05:38:03.462Z,21.50
2018-04-06T05:40:30.985Z,15.37
2018-04-06T05:42:58.600Z,23.67
2018-04-06T05:45:26.172Z,24.83
2018-04-06T05:47:53.731Z,18.03
2018-04-06T05:50:21.265Z,34.47
2018-04-06T05:52:48.851Z,25.23
2018-04-06T05:55:16.415Z,19.63
2018-04-06T05:57:43.942Z,19.83
2018-04-06T06:00:11.537Z,20.20
2018-04-06T06:02:39.132Z,24.77
2018-04-06T06:05:06.658Z,21.07
2018-04-06T06:07:34.185Z,21.53
2018-04-06T06:10:01.702Z,23.20
2018-04-06T06:12:29.235Z,19.90
2018-04-06T06:14:56.761Z,17.43
2018-04-06T06:17:24.282Z,16.63
2018-04-06T06:19:51.810Z,15.07
2018-04-06T06:22:19.327Z,19.23
2018-04-06T06:24:46.842Z,21.33
2018-04-06T06:27:14.353Z,13.57
2018-04-06T06:29:41.948Z,19.73
2018-04-06T06:32:09.464Z,25.30
2018-04-06T06:34:37.055Z,21.23
2018-04-06T06:37:04.565Z,16.33
2018-04-06T06:39:32.081Z,16.73
2018-04-06T06:41:59.598Z,16.73
2018-04-06T06:44:27.127Z,16.07
2018-04-06T06:46:54.752Z,22.03
2018-04-06T06:49:22.282Z,16.30
2018-04-06T06:51:49.819Z,19.50
2018-04-06T06:54:17.403Z,25.43
2018-04-06T06:56:45.006Z,15.97
2018-04-06T06:59:12.530Z,17.07
2018-04-06T07:01:40.120Z,21.67
2018-04-06T07:04:07.641Z,38.37
2018-04-06T07:06:35.169Z,13.40
2018-04-06T07:09:02.686Z,14.53
2018-04-06T07:11:30.206Z,17.23
2018-04-06T07:13:57.733Z,16.07
2018-04-06T07:16:25.278Z,14.10
2018-04-06T07:18:52.826Z,11.77
2018-04-06T07:21:20.357Z,18.20
2018-04-06T07:23:47.985Z,21.60
2018-04-06T07:26:15.517Z,13.53
2018-04-06T07:28:43.047Z,18.43
2018-04-06T07:31:10.571Z,10.63
2018-04-06T07:33:38.103Z,15.17
2018-04-06T07:36:05.630Z,11.77
2018-04-06T07:38:33.157Z,14.90
2018-04-06T07:41:00.764Z,11.80
2018-04-06T07:43:28.344Z,16.70
2018-04-06T07:45:55.867Z,13.33
2018-04-06T07:48:23.387Z,10.30
2018-04-06T07:50:50.918Z,11.90
2018-04-06T07:53:18.632Z,14.37
2018-04-06T07:55:46.186Z,13.70
2018-04-06T07:58:13.800Z,15.00
2018-04-06T08:00:41.325Z,14.67
2018-04-06T08:03:08.849Z,9.67
2018-04-06T08:05:36.506Z,9.07
2018-04-06T08:08:04.038Z,10.37
2018-04-06T08:10:31.560Z,9.63
2018-04-06T08:12:59.130Z,9.70
2018-04-06T08:15:26.646Z,20.47
2018-04-06T08:17:54.175Z,11.33
2018-04-06T08:20:21.713Z,7.33
2018-04-06T08:22:49.236Z,7.63
2018-04-06T08:25:16.859Z,10.50
2018-04-06T08:27:44.388Z,10.00
2018-04-06T08:30:11.931Z,8.33
2018-04-06T08:32:39.538Z,9.63
2018-04-06T08:35:07.056Z,7.60
2018-04-06T08:37:34.593Z,9.77
2018-04-06T08:40:02.201Z,9.17
2018-04-06T08:42:29.824Z,6.23
2018-04-06T08:44:57.304Z,7.70
2018-04-06T08:47:24.826Z,8.93
2018-04-06T08:49:52.344Z,8.23
2018-04-06T08:52:19.866Z,8.30
2018-04-06T08:54:47.440Z,7.90
2018-04-06T08:57:14.951Z,7.85
2018-04-06T08:59:42.465Z,5.40
2018-04-06T09:02:09.984Z,3.92
2018-04-06T09:04:37.603Z,6.68
2018-04-06T09:07:05.174Z,6.20
2018-04-06T09:09:32.689Z,8.10
2018-04-06T09:12:00.219Z,7.25
2018-04-06T09:14:27.857Z,11.77
2018-04-06T09:16:55.430Z,50.67
2018-04-06T09:19:22.980Z,111.10
2018-04-06T09:21:50.518Z,33.13
2018-04-06T09:24:18.042Z,22.85
2018-04-06T09:26:45.630Z,46.70
2018-04-06T09:29:13.153Z,5.65
2018-04-06T09:31:40.674Z,5.15
2018-04-06T09:34:08.198Z,5.62
2018-04-06T09:36:35.752Z,7.55
2018-04-06T09:39:03.280Z,5.40
2018-04-06T09:41:30.951Z,4.68
2018-04-06T09:43:58.453Z,6.15
2018-04-06T09:46:25.990Z,4.80
2018-04-06T09:48:53.580Z,4.18
2018-04-06T09:51:21.123Z,5.72
2018-04-06T09:53:48.730Z,3.05
2018-04-06T09:56:16.258Z,7.65
2018-04-06T09:58:43.823Z,5.07
2018-04-06T10:01:11.332Z,5.68
2018-04-06T10:03:38.957Z,3.60
2018-04-06T10:06:06.518Z,3.58
2018-04-06T10:08:34.030Z,4.68
2018-04-06T10:11:01.558Z,2.83
2018-04-06T10:13:29.073Z,3.75
2018-04-06T10:15:56.592Z,5.12
2018-04-06T10:18:24.112Z,4.55
2018-04-06T10:20:51.621Z,4.50
2018-04-06T10:25:02.709Z,5.07
2018-04-06T10:27:29.438Z,3.83
2018-04-06T10:29:56.159Z,7.30
2018-04-06T10:32:22.877Z,5.70
2018-04-06T10:35:58.769Z,5.20
2018-04-06T10:38:26.297Z,4.53
2018-04-06T10:40:53.824Z,6.20
2018-04-06T10:43:21.386Z,4.43
2018-04-06T10:45:48.928Z,5.15
2018-04-06T10:48:16.537Z,5.40
2018-04-06T10:50:44.097Z,4.70
2018-04-06T10:53:11.618Z,7.22
2018-04-06T10:55:39.175Z,5.18
2018-04-06T10:58:06.779Z,7.10
2018-04-06T11:00:34.302Z,6.17
2018-04-06T11:03:01.912Z,5.83
2018-04-06T11:05:29.422Z,6.77
2018-04-06T11:07:56.986Z,4.13
2018-04-06T11:10:24.516Z,5.90
2018-04-06T11:12:52.136Z,5.30
2018-04-06T11:15:19.666Z,3.13
2018-04-06T11:17:47.183Z,3.60
2018-04-06T11:20:14.714Z,6.20
2018-04-06T11:22:42.240Z,6.30
2018-04-06T11:25:09.759Z,3.40
2018-04-06T11:27:37.293Z,5.47
2018-04-06T11:30:04.818Z,3.73
2018-04-06T11:32:32.461Z,5.10
2018-04-06T11:34:59.990Z,4.87
2018-04-06T11:37:27.568Z,6.83
2018-04-06T11:39:55.141Z,4.30
2018-04-06T11:42:22.829Z,3.77
2018-04-06T11:44:50.352Z,4.53
2018-04-06T11:47:17.873Z,5.47
2018-04-06T11:49:45.408Z,7.17
2018-04-06T11:52:12.948Z,8.57
2018-04-06T11:54:40.469Z,26.43
2018-04-06T11:57:07.979Z,8.37
2018-04-06T11:59:35.505Z,6.63
2018-04-06T12:02:03.029Z,12.53
2018-04-06T12:04:30.559Z,7.03
2018-04-06T12:06:58.157Z,5.97
2018-04-06T12:09:25.672Z,4.60
2018-04-06T12:11:53.273Z,6.83
2018-04-06T12:14:20.795Z,5.63
2018-04-06T12:16:48.323Z,7.00
2018-04-06T12:19:15.958Z,6.33
2018-04-06T12:21:43.473Z,3.83
2018-04-06T12:24:11.072Z,7.50
2018-04-06T12:26:38.631Z,7.90
2018-04-06T12:29:06.155Z,5.47
2018-04-06T12:31:33.683Z,5.40
2018-04-06T12:34:01.218Z,7.57
2018-04-06T12:36:28.734Z,8.60
2018-04-06T12:38:56.257Z,4.77
2018-04-06T12:41:23.785Z,4.93
2018-04-06T12:43:51.347Z,7.33
2018-04-06T12:46:18.899Z,4.50
2018-04-06T12:48:46.413Z,4.03
2018-04-06T12:51:14.024Z,6.40
2018-04-06T12:53:41.568Z,6.60
2018-04-06T12:56:09.114Z,4.77
2018-04-06T12:58:36.809Z,4.93
2018-04-06T13:01:04.335Z,6.93
2018-04-06T13:03:31.857Z,4.67
2018-04-06T13:05:59.482Z,8.37
2018-04-06T13:08:27.008Z,1.87
2018-04-06T13:10:54.562Z,6.13
2018-04-06T13:13:22.100Z,5.77
2018-04-06T13:15:49.722Z,2.63
2018-04-06T13:18:17.273Z,4.63
2018-04-06T13:20:44.803Z,5.13
2018-04-06T13:23:12.346Z,4.00
2018-04-06T13:25:39.888Z,4.80
2018-04-06T13:28:07.391Z,5.00
2018-04-06T13:30:34.913Z,3.07
2018-04-06T13:33:02.545Z,7.60
2018-04-06T13:35:30.106Z,6.03
2018-04-06T13:37:57.621Z,6.57
2018-04-06T13:40:25.159Z,4.20
2018-04-06T13:42:52.678Z,6.50
2018-04-06T13:45:20.193Z,4.50
2018-04-06T13:47:47.727Z,4.67
2018-04-06T13:50:15.233Z,3.33
2018-04-06T13:52:42.821Z,4.50
2018-04-06T13:55:10.382Z,5.43
2018-04-06T13:57:37.891Z,4.93
2018-04-06T14:00:05.409Z,4.40
2018-04-06T14:02:32.940Z,3.50
2018-04-06T14:05:00.451Z,4.43
2018-04-06T14:07:27.965Z,4.80
2018-04-06T14:09:55.484Z,5.53
2018-04-06T14:12:23.020Z,5.87
2018-04-06T14:14:50.537Z,8.63
2018-04-06T14:17:18.050Z,3.03
2018-04-06T14:19:45.574Z,4.10
2018-04-06T14:22:13.102Z,4.33
2018-04-06T14:24:40.631Z,4.67
2018-04-06T14:27:08.231Z,3.97
2018-04-06T14:29:35.746Z,5.10
2018-04-06T14:32:03.368Z,4.03
2018-04-06T14:34:30.891Z,4.90
2018-04-06T14:36:58.418Z,3.17
2018-04-06T14:39:25.933Z,3.37
2018-04-06T14:41:53.451Z,6.00
2018-04-06T14:44:20.990Z,4.17
2018-04-06T14:46:48.524Z,4.17
2018-04-06T14:49:16.037Z,5.70
2018-04-06T14:51:43.565Z,3.67
2018-04-06T14:54:11.102Z,5.17
2018-04-06T14:56:38.630Z,4.50
2018-04-06T14:59:06.216Z,5.37
2018-04-06T15:01:33.747Z,8.13
2018-04-06T15:04:01.283Z,3.83
2018-04-06T15:06:28.804Z,6.97
2018-04-06T15:08:56.330Z,3.33
2018-04-06T15:11:23.921Z,3.83
2018-04-06T15:13:51.468Z,2.47
2018-04-06T15:16:18.981Z,5.03
2018-04-06T15:18:46.599Z,6.00
2018-04-06T15:21:14.164Z,4.93
2018-04-06T15:23:41.694Z,3.50
2018-04-06T15:26:09.234Z,5.30
2018-04-06T15:28:36.760Z,4.57
2018-04-06T15:31:04.390Z,4.93
2018-04-06T15:33:31.914Z,4.77
2018-04-06T15:35:59.526Z,4.77
2018-04-06T15:38:27.049Z,4.87
2018-04-06T15:40:54.614Z,2.47
2018-04-06T15:43:22.191Z,2.63
2018-04-06T15:45:49.778Z,5.10
2018-04-06T15:48:17.292Z,5.90
2018-04-06T15:50:44.839Z,3.83
2018-04-06T15:53:12.442Z,3.37
2018-04-06T15:55:39.970Z,4.97
2018-04-06T15:58:07.488Z,4.50
2018-04-06T16:00:35.061Z,7.33
2018-04-06T16:03:02.605Z,2.77
2018-04-06T16:05:30.127Z,3.17
2018-04-06T16:07:57.642Z,1.97
2018-04-06T16:10:25.269Z,3.43
2018-04-06T16:12:52.794Z,3.00
2018-04-06T16:15:20.304Z,4.07
2018-04-06T16:17:47.822Z,4.33
2018-04-06T16:20:15.330Z,4.10
2018-04-06T16:22:42.857Z,1.83
2018-04-06T16:25:10.385Z,4.80
2018-04-06T16:27:37.900Z,4.70
2018-04-06T16:30:05.531Z,3.27
2018-04-06T16:32:33.061Z,6.23
2018-04-06T16:35:00.605Z,3.93
2018-04-06T16:37:28.226Z,3.47
2018-04-06T16:39:55.746Z,1.87
2018-04-06T16:42:23.267Z,2.73
2018-04-06T16:44:50.896Z,7.20
2018-04-06T16:47:18.432Z,1.93
2018-04-06T16:49:45.952Z,4.43
2018-04-06T16:52:13.470Z,4.23
2018-04-06T16:54:41.006Z,3.47
2018-04-06T16:57:08.521Z,4.70
2018-04-06T16:59:36.149Z,3.53
2018-04-06T17:02:03.655Z,5.63
2018-04-06T17:04:31.180Z,3.63
2018-04-06T17:06:58.709Z,4.10
2018-04-06T17:09:26.233Z,5.43
2018-04-06T17:11:53.856Z,3.63
2018-04-06T17:14:21.376Z,9.50
2018-04-06T17:16:48.913Z,3.80
2018-04-06T17:19:16.433Z,8.33
2018-04-06T17:21:43.993Z,3.50
2018-04-06T17:24:11.552Z,5.00
2018-04-06T17:26:39.066Z,5.23
2018-04-06T17:29:06.672Z,8.77
2018-04-06T17:31:34.208Z,5.00
2018-04-06T17:34:01.722Z,3.90
2018-04-06T17:36:29.250Z,5.50
2018-04-06T17:38:56.779Z,5.13
2018-04-06T17:41:24.305Z,4.53
2018-04-06T17:43:51.857Z,4.00
2018-04-06T17:46:19.461Z,6.00
2018-04-06T17:48:46.975Z,9.83
2018-04-06T17:51:14.508Z,11.90
2018-04-06T17:53:42.044Z,6.27
2018-04-06T17:56:09.577Z,7.53
2018-04-06T17:58:37.156Z,13.50
2018-04-06T18:01:04.699Z,7.50
2018-04-06T18:03:32.220Z,9.60
2018-04-06T18:05:59.738Z,6.37
2018-04-06T18:08:27.325Z,13.07
2018-04-06T18:10:54.916Z,7.20
2018-04-06T18:13:22.429Z,5.90
2018-04-06T18:15:50.004Z,6.37
2018-04-06T18:18:17.530Z,4.20
2018-04-06T18:20:45.056Z,8.00
2018-04-06T18:23:12.579Z,8.47
2018-04-06T18:25:40.100Z,10.23
2018-04-06T18:28:07.656Z,9.20
2018-04-06T18:30:35.185Z,8.80
2018-04-06T18:33:02.712Z,7.60
2018-04-06T18:35:30.228Z,7.30
2018-04-06T18:37:57.759Z,9.03
2018-04-06T18:40:25.281Z,8.57
2018-04-06T18:42:52.798Z,7.33
2018-04-06T18:45:20.413Z,8.63
2018-04-06T18:47:47.931Z,9.90
2018-04-06T18:50:15.441Z,7.00
2018-04-06T18:52:42.958Z,7.03
2018-04-06T18:55:10.519Z,7.83
2018-04-06T18:57:38.067Z,6.00
2018-04-06T19:00:05.594Z,7.47
2018-04-06T19:02:33.118Z,7.63
2018-04-06T19:05:00.638Z,8.17
2018-04-06T19:07:28.174Z,10.80
2018-04-06T19:09:55.708Z,6.73
2018-04-06T19:12:23.233Z,8.97
2018-04-06T19:14:50.829Z,11.50
2018-04-06T19:17:18.383Z,11.57
2018-04-06T19:19:45.913Z,7.97
2018-04-06T19:22:13.430Z,9.37
2018-04-06T19:24:40.949Z,8.77
2018-04-06T19:27:08.734Z,8.03
2018-04-06T19:29:36.258Z,7.77
2018-04-06T19:32:03.782Z,7.87
2018-04-06T19:34:31.303Z,7.37
2018-04-06T19:36:58.862Z,9.57
2018-04-06T19:39:26.381Z,8.83
2018-04-06T19:41:54.044Z,11.57
2018-04-06T19:44:21.666Z,11.13
2018-04-06T19:46:49.234Z,7.80
2018-04-06T19:49:16.874Z,9.87
2018-04-06T19:51:44.397Z,8.20
2018-04-06T19:54:11.959Z,10.13
2018-04-06T19:56:39.497Z,9.27
2018-04-06T19:59:07.022Z,6.83
2018-04-06T20:01:34.564Z,6.67
2018-04-06T20:04:02.134Z,10.33
2018-04-06T20:06:29.686Z,8.00
2018-04-06T20:08:57.274Z,10.83
2018-04-06T20:11:24.921Z,8.37
2018-04-06T20:13:52.576Z,11.80
2018-04-06T20:16:20.106Z,8.77
2018-04-06T20:18:47.618Z,9.97
2018-04-06T20:21:15.149Z,9.73
2018-04-06T20:23:42.666Z,8.57
2018-04-06T20:26:10.221Z,11.20
2018-04-06T20:28:37.797Z,8.60
2018-04-06T20:31:05.570Z,8.20
2018-04-06T20:33:33.162Z,8.77
2018-04-06T20:36:00.823Z,9.03
2018-04-06T20:38:28.337Z,11.13
2018-04-06T20:40:55.848Z,11.70
2018-04-06T20:43:23.392Z,10.10
2018-04-06T20:45:51.164Z,10.50
2018-04-06T20:48:18.913Z,10.17
2018-04-06T20:50:46.532Z,13.73
2018-04-06T20:53:14.072Z,11.13
2018-04-06T20:55:41.610Z,12.33
2018-04-06T20:58:09.161Z,9.93
2018-04-06T21:00:36.677Z,13.60
2018-04-06T21:03:04.276Z,16.93
2018-04-06T21:05:31.878Z,12.80
2018-04-06T21:07:59.408Z,8.80
2018-04-06T21:10:26.930Z,11.27
2018-04-06T21:12:54.469Z,11.80
2018-04-06T21:15:21.994Z,12.93
2018-04-06T21:17:49.509Z,11.93
2018-04-06T21:20:17.103Z,12.20
2018-04-06T21:22:44.629Z,11.67
2018-04-06T21:25:12.150Z,10.57
2018-04-06T21:27:39.779Z,12.90
2018-04-06T21:30:07.297Z,10.37
2018-04-06T21:32:34.842Z,10.07
2018-04-06T21:35:02.380Z,13.10
2018-04-06T21:37:29.894Z,12.70
2018-04-06T21:39:57.412Z,12.23
2018-04-06T21:42:24.925Z,11.37
2018-04-06T21:44:52.442Z,11.07
2018-04-06T21:47:19.983Z,11.80
2018-04-06T21:49:47.512Z,12.03
2018-04-06T21:52:15.025Z,9.50
2018-04-06T21:54:42.637Z,12.23
2018-04-06T21:57:10.367Z,15.40
2018-04-06T21:59:37.880Z,9.77
2018-04-06T22:02:05.399Z,7.93
2018-04-06T22:04:32.980Z,7.77
2018-04-06T22:07:00.490Z,8.30
2018-04-06T22:09:28.030Z,7.70
2018-04-06T22:11:55.540Z,11.53
2018-04-06T22:14:23.055Z,8.73
2018-04-06T22:16:50.574Z,10.80
2018-04-06T22:19:18.090Z,11.87
2018-04-06T22:21:45.601Z,9.13
2018-04-06T22:24:13.116Z,10.70
2018-04-06T22:26:40.711Z,9.53
2018-04-06T22:29:08.249Z,8.30
2018-04-06T22:31:35.767Z,7.80
2018-04-06T22:34:03.391Z,11.70
2018-04-06T22:36:30.919Z,14.20
2018-04-06T22:38:58.438Z,12.37
2018-04-06T22:41:25.981Z,10.03
2018-04-06T22:43:53.496Z,8.67
2018-04-06T22:46:21.091Z,8.30
2018-04-06T22:48:48.716Z,8.13
2018-04-06T22:51:16.233Z,10.30
2018-04-06T22:53:44.280Z,10.43
2018-04-06T22:56:11.919Z,10.33
2018-04-06T22:58:39.421Z,8.37
2018-04-06T23:01:06.930Z,8.60
2018-04-06T23:03:34.452Z,10.27
2018-04-06T23:06:02.022Z,10.13
2018-04-06T23:08:29.558Z,12.97
2018-04-06T23:10:57.200Z,8.00
2018-04-06T23:13:24.729Z,9.90
2018-04-06T23:15:52.277Z,11.03
2018-04-06T23:18:19.796Z,9.07
2018-04-06T23:20:47.333Z,8.23
2018-04-06T23:23:14.898Z,8.03
2018-04-06T23:25:42.442Z,9.03
2018-04-06T23:28:09.959Z,15.53
2018-04-06T23:30:37.573Z,7.77
2018-04-06T23:33:05.135Z,7.70
2018-04-06T23:35:32.644Z,8.50
2018-04-06T23:38:00.245Z,6.70
2018-04-06T23:40:27.754Z,7.63
2018-04-06T23:42:55.274Z,11.17
2018-04-06T23:45:22.800Z,10.57
2018-04-06T23:47:50.354Z,8.83
2018-04-06T23:50:17.866Z,13.60
2018-04-06T23:52:45.384Z,8.13
2018-04-06T23:55:12.977Z,11.03
2018-04-06T23:57:41.590Z,10.83
